createdAt,value
2023-03-11T00:01:36.539Z,85.84
2023-03-11T00:04:43.703Z,80.54
2023-03-11T00:07:52.227Z,75.23
2023-03-11T00:11:03.069Z,68.98
2023-03-11T00:14:08.846Z,65.76
2023-03-11T00:17:18.353Z,59.02
2023-03-11T00:20:28.355Z,59.28
2023-03-11T00:23:37.596Z,59.71
2023-03-11T00:26:43.525Z,59.87
2023-03-11T00:29:50.083Z,56.36
2023-03-11T00:32:59.733Z,50.81
2023-03-11T00:36:07.114Z,49.61
2023-03-11T00:39:15.589Z,48.06
2023-03-11T00:42:23.911Z,49.52
2023-03-11T00:45:31.831Z,48.81
2023-03-11T00:48:38.465Z,48.11
2023-03-11T00:51:44.890Z,38.59
2023-03-11T00:54:54.220Z,28.97
2023-03-11T00:58:03.830Z,24.21
2023-03-11T01:01:30.853Z,22.28
2023-03-11T01:04:36.865Z,23.40
2023-03-11T01:07:43.651Z,19.03
2023-03-11T01:10:52.235Z,17.36
2023-03-11T01:13:58.769Z,15.08
2023-03-11T01:17:04.570Z,16.13
2023-03-11T01:20:12.856Z,14.98
2023-03-11T01:23:20.996Z,14.71
2023-03-11T01:26:30.225Z,15.37
2023-03-11T01:29:36.167Z,14.64
2023-03-11T01:32:43.448Z,14.66
2023-03-11T01:35:50.325Z,15.26
2023-03-11T01:38:58.027Z,15.10
2023-03-11T01:42:07.082Z,15.74
2023-03-11T01:45:42.602Z,14.16
2023-03-11T01:48:53.992Z,16.94
2023-03-11T01:52:08.068Z,23.09
2023-03-11T01:55:23.146Z,28.21
2023-03-11T01:58:41.026Z,34.59
2023-03-11T02:01:58.155Z,42.11
2023-03-11T02:05:07.699Z,41.73
2023-03-11T02:08:13.817Z,37.07
2023-03-11T02:11:26.586Z,31.23
2023-03-11T02:14:38.253Z,26.49
2023-03-11T02:17:47.403Z,22.58
2023-03-11T02:21:10.048Z,23.01
2023-03-11T02:24:31.125Z,23.63
2023-03-11T02:27:48.222Z,25.33
2023-03-11T02:30:56.685Z,24.84
2023-03-11T02:34:12.988Z,23.15
2023-03-11T02:37:21.870Z,22.16
2023-03-11T02:40:55.732Z,21.19
2023-03-11T02:44:09.852Z,22.11
2023-03-11T02:47:17.454Z,21.79
2023-03-11T02:50:28.264Z,21.05
2023-03-11T02:53:44.557Z,20.17
2023-03-11T02:56:51.110Z,19.79
2023-03-11T03:00:02.400Z,18.29
2023-03-11T03:03:10.736Z,18.53
2023-03-11T03:06:18.341Z,18.60
2023-03-11T03:09:25.059Z,20.94
2023-03-11T03:12:31.080Z,17.52
2023-03-11T03:15:40.326Z,19.03
2023-03-11T03:18:46.410Z,20.02
2023-03-11T03:21:53.979Z,18.98
2023-03-11T03:25:01.472Z,16.51
2023-03-11T03:28:10.039Z,18.00
2023-03-11T03:31:21.406Z,22.68
2023-03-11T03:34:28.627Z,24.53
2023-03-11T03:37:38.440Z,16.94
2023-03-11T03:40:50.518Z,16.58
2023-03-11T03:43:59.345Z,18.26
2023-03-11T03:47:09.505Z,16.98
2023-03-11T03:50:17.739Z,19.14
2023-03-11T03:53:27.274Z,22.93
2023-03-11T03:56:33.905Z,22.52
2023-03-11T03:59:41.687Z,18.27
2023-03-11T04:02:50.058Z,19.15
2023-03-11T04:06:13.466Z,20.30
2023-03-11T04:09:19.535Z,22.27
2023-03-11T04:12:26.241Z,25.28
2023-03-11T04:15:32.364Z,29.90
2023-03-11T04:18:41.558Z,30.50
2023-03-11T04:21:47.564Z,27.65
2023-03-11T04:24:54.701Z,25.37
2023-03-11T04:28:03.087Z,23.51
2023-03-11T04:31:12.696Z,23.26
2023-03-11T04:34:21.337Z,22.46
2023-03-11T04:37:31.528Z,23.41
2023-03-11T04:40:40.135Z,23.53
2023-03-11T04:43:47.148Z,24.35
2023-03-11T04:46:53.359Z,22.79
2023-03-11T04:50:02.632Z,17.53
2023-03-11T04:53:09.201Z,14.40
2023-03-11T04:56:17.101Z,13.63
2023-03-11T04:59:23.172Z,15.07
2023-03-11T05:02:31.345Z,18.24
2023-03-11T05:05:42.085Z,19.57
2023-03-11T05:08:50.097Z,20.87
2023-03-11T05:11:56.273Z,20.24
2023-03-11T05:15:03.637Z,20.93
2023-03-11T05:18:09.937Z,19.54
2023-03-11T05:21:20.858Z,21.77
2023-03-11T05:24:27.985Z,24.14
2023-03-11T05:27:36.137Z,26.72
2023-03-11T05:30:43.092Z,29.01
2023-03-11T05:33:50.213Z,20.92
2023-03-11T05:36:59.420Z,16.94
2023-03-11T05:40:10.470Z,25.61
2023-03-11T05:43:17.279Z,22.62
2023-03-11T05:46:32.456Z,37.67
2023-03-11T05:49:39.943Z,42.07
2023-03-11T05:52:49.322Z,60.17
2023-03-11T05:56:02.669Z,96.25
2023-03-11T05:59:09.500Z,36.44
2023-03-11T06:02:16.045Z,47.51
2023-03-11T06:05:23.140Z,28.06
2023-03-11T06:08:34.614Z,21.13
2023-03-11T06:11:42.455Z,18.13
2023-03-11T06:14:48.919Z,19.94
2023-03-11T06:17:55.866Z,19.96
2023-03-11T06:21:04.144Z,29.00
2023-03-11T06:24:15.023Z,40.38
2023-03-11T06:27:25.821Z,54.67
2023-03-11T06:30:33.771Z,43.74
2023-03-11T06:33:46.430Z,40.40
2023-03-11T06:36:57.371Z,23.81
2023-03-11T06:40:07.529Z,22.75
2023-03-11T06:43:14.725Z,22.06
2023-03-11T06:46:25.599Z,104.52
2023-03-11T06:49:34.552Z,172.31
2023-03-11T06:52:40.509Z,137.94
2023-03-11T06:56:02.533Z,56.50
2023-03-11T06:59:10.492Z,55.24
2023-03-11T07:02:17.401Z,59.17
2023-03-11T07:05:23.291Z,47.33
2023-03-11T07:08:34.796Z,45.99
2023-03-11T07:11:43.371Z,50.18
2023-03-11T07:14:58.866Z,69.73
2023-03-11T07:18:05.667Z,83.29
2023-03-11T07:21:14.307Z,93.29
2023-03-11T07:24:20.304Z,127.00
2023-03-11T07:27:31.730Z,150.37
2023-03-11T07:30:37.554Z,132.38
2023-03-11T07:33:44.356Z,113.37
2023-03-11T07:36:50.157Z,83.74
2023-03-11T07:39:57.119Z,84.85
2023-03-11T07:43:05.637Z,73.41
2023-03-11T07:46:16.685Z,62.70
2023-03-11T07:49:22.658Z,63.76
2023-03-11T07:52:32.454Z,59.48
2023-03-11T07:55:40.317Z,59.49
2023-03-11T07:58:50.026Z,60.32
2023-03-11T08:01:57.134Z,83.55
2023-03-11T08:05:03.861Z,83.43
2023-03-11T08:08:09.773Z,74.77
2023-03-11T08:11:18.007Z,77.89
2023-03-11T08:14:26.398Z,61.88
2023-03-11T08:17:33.115Z,60.70
2023-03-11T08:20:41.105Z,84.14
2023-03-11T08:23:49.201Z,147.03
2023-03-11T08:26:55.646Z,93.25
2023-03-11T08:30:05.216Z,98.46
2023-03-11T08:33:11.201Z,104.44
2023-03-11T08:36:17.974Z,78.62
2023-03-11T08:39:24.112Z,68.42
2023-03-11T08:42:30.703Z,84.28
2023-03-11T08:45:39.114Z,82.26
2023-03-11T08:48:47.261Z,100.58
2023-03-11T08:51:53.115Z,129.75
2023-03-11T08:55:00.412Z,162.56
2023-03-11T08:58:07.676Z,118.54
2023-03-11T09:01:17.320Z,138.21
2023-03-11T09:04:23.120Z,115.32
2023-03-11T09:07:29.828Z,124.96
2023-03-11T09:10:36.076Z,133.27
2023-03-11T09:13:43.856Z,101.35
2023-03-11T09:16:52.217Z,157.22
2023-03-11T09:19:58.823Z,128.23
2023-03-11T09:23:04.812Z,111.20
2023-03-11T09:26:11.516Z,148.27
2023-03-11T09:29:18.209Z,115.08
2023-03-11T09:32:28.317Z,111.44
2023-03-11T09:35:34.446Z,616.45
2023-03-11T09:38:41.216Z,350.77
2023-03-11T09:41:59.059Z,323.01
2023-03-11T09:45:15.520Z,335.52
2023-03-11T09:48:40.231Z,205.11
2023-03-11T09:52:04.846Z,182.82
2023-03-11T09:55:34.711Z,209.66
2023-03-11T09:58:47.733Z,157.74
2023-03-11T10:01:55.821Z,181.18
2023-03-11T10:05:16.909Z,171.21
2023-03-11T10:08:36.258Z,196.75
2023-03-11T10:12:10.009Z,146.15
2023-03-11T10:15:39.707Z,292.84
2023-03-11T10:19:03.575Z,337.40
2023-03-11T10:22:29.915Z,316.16
2023-03-11T10:25:56.851Z,287.46
2023-03-11T10:29:13.236Z,439.96
2023-03-11T10:32:32.033Z,382.73
2023-03-11T10:35:47.550Z,310.18
2023-03-11T10:38:59.149Z,261.28
2023-03-11T10:42:08.874Z,384.87
2023-03-11T10:45:17.607Z,269.89
2023-03-11T10:48:25.748Z,150.39
2023-03-11T10:51:38.587Z,96.95
2023-03-11T10:54:51.169Z,86.10
2023-03-11T10:58:10.426Z,78.06
2023-03-11T11:01:21.856Z,71.67
2023-03-11T11:04:45.107Z,85.99
2023-03-11T11:07:53.269Z,83.92
2023-03-11T11:11:05.898Z,104.06
2023-03-11T11:14:12.370Z,97.09
2023-03-11T11:17:30.009Z,81.31
2023-03-11T11:20:37.845Z,72.88
2023-03-11T11:23:53.032Z,102.68
2023-03-11T11:27:21.622Z,74.66
2023-03-11T11:30:32.420Z,101.23
2023-03-11T11:33:53.226Z,108.20
2023-03-11T11:37:02.792Z,193.55
2023-03-11T11:40:30.783Z,219.18
2023-03-11T11:43:53.289Z,308.04
2023-03-11T11:47:10.590Z,176.04
2023-03-11T11:50:30.254Z,127.27
2023-03-11T11:53:47.228Z,135.92
2023-03-11T11:56:53.909Z,142.15
2023-03-11T12:00:09.614Z,115.55
2023-03-11T12:03:51.503Z,97.19
2023-03-11T12:07:22.281Z,89.94
2023-03-11T12:10:44.497Z,84.98
2023-03-11T12:14:08.453Z,162.70
2023-03-11T12:17:23.744Z,139.22
2023-03-11T12:20:41.421Z,366.13
2023-03-11T12:24:12.260Z,1103.71
2023-03-11T12:27:28.288Z,1445.21
2023-03-11T12:30:44.677Z,827.60
2023-03-11T12:34:03.265Z,718.39
2023-03-11T12:37:18.448Z,736.26
2023-03-11T12:41:01.137Z,483.19
2023-03-11T12:44:26.598Z,916.37
2023-03-11T12:47:35.246Z,563.21
2023-03-11T12:50:47.328Z,315.81
2023-03-11T12:53:53.263Z,254.46
2023-03-11T12:57:03.265Z,277.43
2023-03-11T13:00:30.706Z,257.75
2023-03-11T13:04:24.372Z,169.61
2023-03-11T13:07:51.238Z,194.40
2023-03-11T13:11:00.748Z,174.31
2023-03-11T13:14:34.176Z,137.38
2023-03-11T13:17:41.977Z,103.94
2023-03-11T13:20:59.025Z,103.00
2023-03-11T13:24:52.987Z,103.74
2023-03-11T13:28:25.584Z,118.01
2023-03-11T13:31:59.376Z,176.78
2023-03-11T13:35:32.393Z,155.62
2023-03-11T13:39:30.573Z,130.22
2023-03-11T13:43:02.798Z,205.46
2023-03-11T13:46:38.555Z,1150.34
2023-03-11T13:50:08.952Z,953.98
2023-03-11T13:53:42.530Z,554.53
2023-03-11T13:56:57.620Z,780.96
2023-03-11T14:00:24.252Z,851.24
2023-03-11T14:03:36.939Z,450.60
2023-03-11T14:06:42.787Z,323.76
2023-03-11T14:09:49.531Z,206.47
2023-03-11T14:13:07.339Z,196.05
2023-03-11T14:16:24.240Z,165.89
2023-03-11T14:19:30.697Z,109.20
2023-03-11T14:22:56.594Z,102.86
2023-03-11T14:26:23.131Z,115.66
2023-03-11T14:29:46.036Z,94.33
2023-03-11T14:33:25.449Z,111.80
2023-03-11T14:36:32.203Z,550.88
2023-03-11T14:39:40.504Z,291.10
2023-03-11T14:42:48.821Z,227.02
2023-03-11T14:45:58.122Z,297.07
2023-03-11T14:49:17.178Z,306.78
2023-03-11T14:52:37.474Z,295.57
2023-03-11T14:55:53.816Z,176.39
2023-03-11T14:59:12.676Z,488.51
2023-03-11T15:02:44.157Z,207.74
2023-03-11T15:05:57.894Z,110.17
2023-03-11T15:09:13.502Z,109.16
2023-03-11T15:12:37.477Z,142.04
2023-03-11T15:15:46.285Z,97.29
2023-03-11T15:18:54.526Z,101.74
2023-03-11T15:22:27.229Z,91.84
2023-03-11T15:25:37.533Z,97.76
2023-03-11T15:28:45.227Z,80.45
2023-03-11T15:31:52.039Z,75.06
2023-03-11T15:35:16.434Z,70.15
2023-03-11T15:38:28.880Z,72.74
2023-03-11T15:41:35.520Z,210.19
2023-03-11T15:44:48.411Z,99.41
2023-03-11T15:47:56.913Z,111.04
2023-03-11T15:51:04.019Z,126.86
2023-03-11T15:54:13.367Z,98.69
2023-03-11T15:57:27.993Z,83.75
2023-03-11T16:00:35.805Z,90.11
2023-03-11T16:03:41.769Z,97.10
2023-03-11T16:07:02.932Z,79.31
2023-03-11T16:10:19.098Z,96.27
2023-03-11T16:13:25.728Z,92.36
2023-03-11T16:16:31.681Z,97.96
2023-03-11T16:19:38.447Z,108.33
2023-03-11T16:22:44.719Z,359.63
2023-03-11T16:25:59.562Z,154.24
2023-03-11T16:29:18.523Z,123.34
2023-03-11T16:32:28.148Z,100.12
2023-03-11T16:35:33.999Z,142.08
2023-03-11T16:38:50.680Z,116.36
2023-03-11T16:41:59.253Z,93.25
2023-03-11T16:45:06.041Z,122.45
2023-03-11T16:48:13.523Z,120.76
2023-03-11T16:51:20.174Z,94.92
2023-03-11T16:54:27.878Z,80.02
2023-03-11T16:57:38.013Z,86.07
2023-03-11T17:00:44.269Z,113.12
2023-03-11T17:03:52.123Z,84.74
2023-03-11T17:06:58.322Z,78.82
2023-03-11T17:10:06.670Z,82.76
2023-03-11T17:13:19.206Z,150.08
2023-03-11T17:16:26.071Z,114.84
2023-03-11T17:19:33.958Z,107.77
2023-03-11T17:22:40.850Z,109.83
2023-03-11T17:25:46.723Z,120.47
2023-03-11T17:28:56.161Z,116.46
2023-03-11T17:32:01.969Z,101.29
2023-03-11T17:35:10.188Z,86.30
2023-03-11T17:38:16.736Z,87.00
2023-03-11T17:41:25.024Z,86.84
2023-03-11T17:44:50.223Z,90.07
2023-03-11T17:47:58.150Z,88.40
2023-03-11T17:51:10.258Z,95.77
2023-03-11T17:54:16.967Z,128.70
2023-03-11T17:57:23.072Z,113.81
2023-03-11T18:00:32.329Z,99.70
2023-03-11T18:03:38.147Z,86.56
2023-03-11T18:06:44.825Z,91.37
2023-03-11T18:09:55.291Z,91.91
2023-03-11T18:13:02.093Z,98.69
2023-03-11T18:16:15.534Z,83.35
2023-03-11T18:19:22.643Z,75.59
2023-03-11T18:22:28.476Z,69.18
2023-03-11T18:25:35.629Z,65.71
2023-03-11T18:28:42.994Z,73.87
2023-03-11T18:31:52.332Z,86.75
2023-03-11T18:34:58.089Z,145.49
2023-03-11T18:38:04.858Z,116.47
2023-03-11T18:41:10.738Z,134.27
2023-03-11T18:44:17.420Z,125.38
2023-03-11T18:47:25.833Z,225.14
2023-03-11T18:50:32.562Z,137.46
2023-03-11T18:53:40.690Z,95.27
2023-03-11T18:56:49.964Z,153.14
2023-03-11T18:59:55.758Z,170.18
2023-03-11T19:03:05.120Z,146.77
2023-03-11T19:06:12.342Z,351.22
2023-03-11T19:09:19.465Z,1774.55
2023-03-11T19:12:29.389Z,4241.43
2023-03-11T19:15:36.180Z,2902.44
2023-03-11T19:18:47.768Z,3828.27
2023-03-11T19:21:55.567Z,3855.16
2023-03-11T19:25:01.404Z,11309.21
2023-03-11T19:28:08.402Z,15293.81
2023-03-11T19:31:14.320Z,2630.03
2023-03-11T19:34:24.082Z,1266.75
2023-03-11T19:37:29.857Z,1051.91
2023-03-11T19:40:36.691Z,643.60
2023-03-11T19:43:43.063Z,354.83
2023-03-11T19:46:49.924Z,500.93
2023-03-11T19:49:58.325Z,761.53
2023-03-11T19:53:05.158Z,937.82
2023-03-11T19:56:13.657Z,810.04
2023-03-11T19:59:20.381Z,870.20
2023-03-11T20:02:26.449Z,655.42
2023-03-11T20:05:39.364Z,561.30
2023-03-11T20:08:45.673Z,467.72
2023-03-11T20:11:52.455Z,369.62
2023-03-11T20:14:58.245Z,290.19
2023-03-11T20:18:06.536Z,201.42
2023-03-11T20:21:17.980Z,157.43
2023-03-11T20:24:24.975Z,117.42
2023-03-11T20:27:30.731Z,107.81
2023-03-11T20:30:38.071Z,139.78
2023-03-11T20:33:44.268Z,129.04
2023-03-11T20:36:53.798Z,206.79
2023-03-11T20:39:59.669Z,260.12
2023-03-11T20:43:06.439Z,267.11
2023-03-11T20:46:13.995Z,288.58
2023-03-11T20:49:20.647Z,287.70
2023-03-11T20:52:35.830Z,345.96
2023-03-11T20:55:44.235Z,307.96
2023-03-11T20:58:55.965Z,309.72
2023-03-11T21:02:03.526Z,232.49
2023-03-11T21:05:12.242Z,229.43
2023-03-11T21:08:21.772Z,229.54
2023-03-11T21:11:28.995Z,236.16
2023-03-11T21:14:35.647Z,244.69
2023-03-11T21:17:41.866Z,221.84
2023-03-11T21:20:48.951Z,215.93
2023-03-11T21:23:57.813Z,252.27
2023-03-11T21:27:05.029Z,241.30
2023-03-11T21:30:14.013Z,236.41
2023-03-11T21:33:21.160Z,215.10
2023-03-11T21:36:27.891Z,167.62
2023-03-11T21:39:37.207Z,194.39
2023-03-11T21:42:43.201Z,164.09
2023-03-11T21:45:55.483Z,192.94
2023-03-11T21:49:05.538Z,149.22
2023-03-11T21:52:13.145Z,135.47
2023-03-11T21:55:22.557Z,145.19
2023-03-11T21:58:30.526Z,142.81
2023-03-11T22:01:37.887Z,139.76
2023-03-11T22:04:45.013Z,129.66
2023-03-11T22:07:51.556Z,126.86
2023-03-11T22:11:01.200Z,126.29
2023-03-11T22:14:09.643Z,130.32
2023-03-11T22:17:16.657Z,138.50
2023-03-11T22:20:23.322Z,119.90
2023-03-11T22:23:30.836Z,133.25
2023-03-11T22:26:39.756Z,118.89
2023-03-11T22:29:46.676Z,111.82
2023-03-11T22:32:53.798Z,122.27
2023-03-11T22:36:02.314Z,123.53
2023-03-11T22:39:09.140Z,109.47
2023-03-11T22:42:18.824Z,110.70
2023-03-11T22:45:27.848Z,115.17
2023-03-11T22:48:35.117Z,122.93
2023-03-11T22:51:40.867Z,116.06
2023-03-11T22:54:48.096Z,120.05
2023-03-11T22:57:57.027Z,112.57
2023-03-11T23:01:04.262Z,121.63
2023-03-11T23:04:10.729Z,133.06
2023-03-11T23:07:18.478Z,131.99
2023-03-11T23:10:24.766Z,124.27
2023-03-11T23:13:35.999Z,125.98
2023-03-11T23:16:44.062Z,118.64
2023-03-11T23:19:50.761Z,127.56
2023-03-11T23:22:56.687Z,139.70
2023-03-11T23:26:03.731Z,133.12
2023-03-11T23:29:12.328Z,149.67
2023-03-11T23:32:18.933Z,138.15
2023-03-11T23:35:24.822Z,135.33
2023-03-11T23:38:31.562Z,133.72
2023-03-11T23:41:38.124Z,130.64
2023-03-11T23:44:47.345Z,134.80
2023-03-11T23:47:53.316Z,131.02
2023-03-11T23:51:00.756Z,116.66
2023-03-11T23:54:06.720Z,111.11
2023-03-11T23:57:13.439Z,119.57
